Time;durP1;ratioP1;P1;durP2;ratioP2;P2;SDS_P1;SDS_P2;PMS_P1;PMS_P2;Temp;Humidity;BMP_temperature;BMP_pressure;BME280_temperature;BME280_humidity;BME280_pressure;Samples;Min_cycle;Max_cycle;Signal;HPM_P1;HPM_P2
2021/05/20 00:00:02;;;;;;;1.75;0.35;;;12.30;92.40;12.70;100273.00;;;;345776;28;83439;-87
2021/05/20 00:00:15;;;;;;;1.60;0.20;;;12.40;92.40;12.70;100263.00;;;;343597;28;86561;-86
2021/05/20 00:00:26;;;;;;;0.77;0.17;;;12.40;92.40;12.70;100267.00;;;;345627;28;84330;-87
2021/05/20 00:00:38;;;;;;;0.73;0.10;;;12.40;92.40;12.60;100264.00;;;;345558;28;88706;-87
2021/05/20 00:00:50;;;;;;;1.33;0.10;;;12.40;92.20;12.40;100267.00;;;;347144;28;83424;-86
2021/05/20 00:01:03;;;;;;;1.10;0.20;;;12.40;92.10;12.50;100271.00;;;;348551;27;85363;-87
2021/05/20 00:01:15;;;;;;;0.90;0.20;;;12.40;92.10;12.50;100261.00;;;;347101;28;83386;-86
2021/05/20 00:01:27;;;;;;;0.60;0.10;;;12.40;92.20;12.40;100269.00;;;;345718;28;85604;-87
2021/05/20 00:01:39;;;;;;;0.63;0.20;;;12.40;92.20;12.40;100266.00;;;;347197;28;83448;-87
2021/05/20 00:01:52;;;;;;;0.38;0.20;;;12.40;92.20;12.60;100263.00;;;;347189;28;84922;-86
2021/05/20 00:02:03;;;;;;;0.30;0.10;;;12.40;92.20;12.60;100269.00;;;;345820;28;83362;-87
2021/05/20 00:02:15;;;;;;;0.98;0.25;;;12.40;92.20;12.50;100263.00;;;;347120;28;85597;-87
2021/05/20 00:02:27;;;;;;;1.20;0.30;;;12.40;92.10;12.60;100266.00;;;;347224;28;83305;-87
2021/05/20 00:02:39;;;;;;;1.00;0.30;;;12.40;92.00;12.70;100267.00;;;;347138;28;85401;-86
2021/05/20 00:02:52;;;;;;;0.40;0.10;;;12.40;92.10;12.60;100266.00;;;;345522;28;84177;-87
2021/05/20 00:03:04;;;;;;;0.43;0.10;;;12.40;92.10;12.60;100258.00;;;;344362;28;85803;-87
2021/05/20 00:03:16;;;;;;;0.57;0.10;;;12.40;92.10;12.40;100261.00;;;;345722;28;83708;-86
2021/05/20 00:03:27;;;;;;;1.10;0.10;;;12.40;92.10;12.50;100260.00;;;;344258;28;85088;-87
2021/05/20 00:03:39;;;;;;;2.03;0.10;;;12.40;92.00;12.40;100258.00;;;;345426;28;83797;-86
2021/05/20 00:03:52;;;;;;;2.30;0.10;;;12.40;92.00;12.40;100261.00;;;;346993;28;85693;-86
2021/05/20 00:04:04;;;;;;;0.85;0.10;;;12.40;92.00;12.40;100257.00;;;;345597;28;83615;-88
2021/05/20 00:04:16;;;;;;;0.60;0.10;;;12.40;92.00;12.30;100263.00;;;;344120;28;89045;-87
2021/05/20 00:04:28;;;;;;;0.80;0.10;;;12.40;91.90;12.50;100262.00;;;;347125;28;83329;-87
2021/05/20 00:04:40;;;;;;;0.85;0.10;;;12.40;92.00;12.60;100261.00;;;;346986;28;87571;-87
2021/05/20 00:04:52;;;;;;;0.40;0.10;;;12.40;92.10;12.60;100259.00;;;;347016;28;84356;-86
2021/05/20 00:05:05;;;;;;;1.00;0.20;;;12.40;92.10;12.60;100267.00;;;;345790;28;85745;-86
2021/05/20 00:05:17;;;;;;;1.25;0.20;;;12.40;92.10;12.60;100264.00;;;;345693;28;83470;-86
2021/05/20 00:05:29;;;;;;;0.77;0.20;;;12.40;92.10;12.40;100266.00;;;;344366;28;85709;-86
2021/05/20 00:05:41;;;;;;;0.52;0.20;;;12.40;92.00;12.40;100262.00;;;;343069;28;83776;-87
2021/05/20 00:05:52;;;;;;;2.67;0.35;;;12.40;92.20;12.50;100259.00;;;;345625;28;86697;-87
2021/05/20 00:06:05;;;;;;;4.88;0.50;;;12.40;92.00;12.60;100261.00;;;;345532;28;83780;-87
2021/05/20 00:06:17;;;;;;;5.03;0.50;;;12.40;92.00;12.60;100261.00;;;;343710;28;85417;-87
2021/05/20 00:06:29;;;;;;;1.30;0.10;;;12.40;92.00;12.70;100264.00;;;;345798;28;82606;-87
2021/05/20 00:06:41;;;;;;;2.03;0.20;;;12.40;92.10;12.80;100262.00;;;;345526;28;88896;-87
2021/05/20 00:06:52;;;;;;;1.50;0.20;;;12.40;92.10;12.80;100266.00;;;;345536;28;83427;-86
2021/05/20 00:07:04;;;;;;;1.10;0.20;;;12.40;92.10;12.70;100266.00;;;;344462;28;85422;-87
2021/05/20 00:07:17;;;;;;;1.17;0.20;;;12.40;92.00;12.70;100267.00;;;;346467;28;84042;-87
2021/05/20 00:07:29;;;;;;;1.67;0.20;;;12.40;92.00;12.80;100265.00;;;;345570;28;86882;-86
2021/05/20 00:07:41;;;;;;;1.25;0.13;;;12.40;92.00;12.70;100254.00;;;;345779;28;83505;-87
2021/05/20 00:07:53;;;;;;;1.15;0.10;;;12.40;91.90;12.80;100262.00;;;;347038;28;85121;-87
2021/05/20 00:08:05;;;;;;;0.63;0.10;;;12.50;92.00;12.70;100267.00;;;;348467;27;83761;-88
2021/05/20 00:08:17;;;;;;;0.80;0.10;;;12.40;92.00;12.80;100266.00;;;;345740;28;85362;-86
2021/05/20 00:08:28;;;;;;;0.68;0.17;;;12.50;92.00;12.90;100273.00;;;;348574;27;83759;-86
2021/05/20 00:08:40;;;;;;;0.43;0.10;;;12.50;92.00;12.90;100269.00;;;;345536;28;85855;-86
2021/05/20 00:08:52;;;;;;;0.32;0.20;;;12.50;91.90;12.90;100261.00;;;;346911;28;83416;-87
2021/05/20 00:09:04;;;;;;;0.65;0.20;;;12.50;91.90;12.80;100275.00;;;;346936;28;86942;-87
2021/05/20 00:09:16;;;;;;;0.60;0.20;;;12.50;91.90;12.90;100262.00;;;;345213;28;83525;-87
2021/05/20 00:09:28;;;;;;;0.82;0.20;;;12.60;91.90;12.90;100265.00;;;;346833;28;86436;-87
2021/05/20 00:09:41;;;;;;;0.80;0.10;;;12.60;91.90;13.00;100266.00;;;;347468;27;83625;-87
2021/05/20 00:09:53;;;;;;;0.80;0.10;;;12.60;91.90;13.00;100265.00;;;;345665;28;85411;-87
2021/05/20 00:10:06;;;;;;;0.45;0.15;;;12.60;91.90;13.00;100264.00;;;;345722;28;83384;-87
2021/05/20 00:10:18;;;;;;;0.50;0.20;;;12.60;91.90;13.00;100268.00;;;;345278;28;84987;-87
2021/05/20 00:10:30;;;;;;;0.40;0.10;;;12.60;91.90;12.90;100265.00;;;;344507;28;82272;-87
2021/05/20 00:10:41;;;;;;;0.60;0.15;;;12.70;91.80;12.90;100265.00;;;;344328;28;85312;-86
2021/05/20 00:10:53;;;;;;;0.70;0.13;;;12.60;91.80;12.90;100266.00;;;;347122;27;83462;-87
2021/05/20 00:11:05;;;;;;;0.73;0.13;;;12.60;91.90;12.80;100257.00;;;;343931;28;84958;-87
2021/05/20 00:11:17;;;;;;;1.30;0.20;;;12.60;91.80;12.80;100262.00;;;;344297;28;84406;-87
2021/05/20 00:11:29;;;;;;;1.20;0.10;;;12.70;91.80;12.90;100265.00;;;;344398;28;85691;-87
2021/05/20 00:11:40;;;;;;;0.85;0.13;;;12.70;91.90;12.90;100261.00;;;;342948;28;83754;-87
2021/05/20 00:11:52;;;;;;;0.70;0.20;;;12.70;91.90;13.00;100259.00;;;;345695;28;85946;-87
2021/05/20 00:12:04;;;;;;;1.50;0.20;;;12.70;92.00;13.00;100259.00;;;;345626;28;84738;-87
2021/05/20 00:12:16;;;;;;;1.65;0.28;;;12.70;92.00;12.90;100260.00;;;;343594;28;85386;-87
2021/05/20 00:12:28;;;;;;;1.20;0.22;;;12.70;91.90;13.00;100264.00;;;;344281;28;83563;-87
2021/05/20 00:12:40;;;;;;;0.75;0.20;;;12.70;91.90;13.10;100262.00;;;;345483;28;87107;-88
2021/05/20 00:12:52;;;;;;;0.50;0.10;;;12.70;91.90;12.90;100257.00;;;;345630;28;83508;-87
2021/05/20 00:13:04;;;;;;;1.00;0.10;;;12.70;91.70;12.80;100267.00;;;;345344;28;85911;-87
2021/05/20 00:13:16;;;;;;;0.90;0.10;;;12.70;91.60;13.00;100258.00;;;;344934;28;82466;-87
2021/05/20 00:13:27;;;;;;;1.38;0.22;;;12.70;91.70;13.00;100253.00;;;;345692;28;85407;-87
2021/05/20 00:13:39;;;;;;;1.40;0.30;;;12.80;91.80;13.00;100266.00;;;;345731;28;83454;-87
2021/05/20 00:13:51;;;;;;;1.30;0.40;;;12.70;91.70;13.00;100257.00;;;;345647;28;85841;-87
2021/05/20 00:14:03;;;;;;;0.98;0.30;;;12.70;91.80;13.00;100262.00;;;;344406;28;83406;-87
2021/05/20 00:14:15;;;;;;;1.95;0.38;;;12.80;91.80;12.90;100260.00;;;;342871;28;88423;-87
2021/05/20 00:14:27;;;;;;;1.55;0.20;;;12.80;91.80;12.90;100262.00;;;;343017;28;83703;-86
2021/05/20 00:14:40;;;;;;;1.40;0.20;;;12.80;91.70;12.90;100257.00;;;;343025;28;85040;-87
2021/05/20 00:14:52;;;;;;;0.50;0.20;;;12.80;91.60;13.00;100254.00;;;;341421;28;84183;-87
2021/05/20 00:15:05;;;;;;;0.25;0.10;;;12.80;91.70;12.90;100265.00;;;;341345;28;85483;-87
2021/05/20 00:15:17;;;;;;;0.40;0.10;;;12.80;91.70;13.00;100267.00;;;;346715;28;83410;-87
2021/05/20 00:15:29;;;;;;;0.50;0.10;;;12.80;91.90;13.00;100264.00;;;;346824;28;87380;-87
2021/05/20 00:15:41;;;;;;;0.35;0.10;;;12.80;91.80;13.00;100266.00;;;;347076;28;83034;-86
2021/05/20 00:15:53;;;;;;;0.50;0.10;;;12.80;91.80;13.00;100260.00;;;;345651;28;85238;-87
2021/05/20 00:16:05;;;;;;;0.55;0.10;;;12.80;91.70;13.00;100262.00;;;;344328;28;82575;-87
2021/05/20 00:16:17;;;;;;;0.43;0.10;;;12.80;91.70;13.10;100261.00;;;;344159;28;87013;-87
2021/05/20 00:16:29;;;;;;;1.13;0.10;;;12.80;91.70;13.00;100262.00;;;;343074;28;83318;-87
2021/05/20 00:16:40;;;;;;;1.20;0.10;;;12.80;91.70;13.10;100265.00;;;;344359;28;86213;-86
2021/05/20 00:16:52;;;;;;;1.30;0.20;;;12.80;91.70;13.10;100263.00;;;;344371;28;82499;-87
2021/05/20 00:17:04;;;;;;;0.60;0.10;;;12.80;91.70;13.20;100265.00;;;;345625;28;88161;-87
2021/05/20 00:17:16;;;;;;;1.00;0.10;;;12.80;91.80;13.10;100260.00;;;;345716;28;83736;-86
2021/05/20 00:17:28;;;;;;;1.15;0.20;;;12.90;91.80;13.20;100264.00;;;;345177;28;88169;-88
2021/05/20 00:17:40;;;;;;;1.42;0.20;;;12.80;91.80;13.20;100264.00;;;;342967;28;85098;-87
2021/05/20 00:17:52;;;;;;;1.90;0.20;;;12.80;91.70;13.30;100266.00;;;;344405;28;84939;-87
2021/05/20 00:18:04;;;;;;;2.35;0.17;;;12.90;91.70;13.30;100262.00;;;;347124;28;82459;-86
2021/05/20 00:18:16;;;;;;;1.35;0.20;;;12.90;91.70;13.20;100266.00;;;;349379;27;84559;-87
2021/05/20 00:18:28;;;;;;;1.08;0.20;;;12.90;91.70;13.10;100270.00;;;;345725;28;83369;-86
2021/05/20 00:18:40;;;;;;;1.10;0.20;;;12.90;91.60;13.10;100267.00;;;;345603;28;85984;-87
2021/05/20 00:18:52;;;;;;;0.90;0.10;;;12.90;91.50;13.20;100255.00;;;;344341;28;83444;-87
2021/05/20 00:19:04;;;;;;;0.55;0.10;;;12.90;91.50;13.20;100266.00;;;;347083;28;85209;-87
2021/05/20 00:19:15;;;;;;;0.63;0.10;;;12.90;91.50;13.10;100268.00;;;;345720;28;82509;-87
2021/05/20 00:19:27;;;;;;;1.08;0.20;;;12.90;91.30;13.20;100271.00;;;;345618;28;88361;-87
2021/05/20 00:19:39;;;;;;;0.93;0.10;;;12.90;91.60;13.10;100269.00;;;;344338;28;83368;-87
2021/05/20 00:19:51;;;;;;;0.52;0.10;;;12.90;91.30;13.00;100259.00;;;;344342;28;84827;-87
2021/05/20 00:20:04;;;;;;;0.60;0.10;;;12.90;91.40;13.00;100264.00;;;;344293;28;83448;-87
2021/05/20 00:20:16;;;;;;;0.50;0.10;;;12.90;91.40;13.10;100270.00;;;;344229;28;83595;-87
2021/05/20 00:20:28;;;;;;;0.38;0.10;;;12.90;91.40;13.10;100271.00;;;;344257;28;84017;-87
2021/05/20 00:20:40;;;;;;;0.88;0.30;;;12.90;91.50;13.10;100262.00;;;;345793;28;84864;-86
2021/05/20 00:20:52;;;;;;;1.05;0.30;;;12.90;91.60;13.10;100262.00;;;;345392;28;83792;-87
2021/05/20 00:21:04;;;;;;;0.70;0.20;;;12.90;91.50;13.00;100271.00;;;;345682;28;84321;-87
2021/05/20 00:21:16;;;;;;;0.40;0.10;;;12.90;91.40;13.10;100270.00;;;;344017;28;83640;-87
2021/05/20 00:21:28;;;;;;;0.50;0.10;;;12.90;91.50;13.20;100271.00;;;;345963;28;84470;-87
2021/05/20 00:21:40;;;;;;;1.10;0.10;;;12.90;91.60;13.10;100269.00;;;;345567;28;84506;-87
2021/05/20 00:21:52;;;;;;;1.98;0.10;;;12.90;91.60;13.10;100269.00;;;;345784;28;85671;-87
2021/05/20 00:22:03;;;;;;;2.00;0.10;;;12.90;91.30;13.10;100268.00;;;;346998;28;83438;-87
2021/05/20 00:22:15;;;;;;;1.38;0.10;;;12.90;91.40;13.10;100268.00;;;;343605;28;85072;-86
2021/05/20 00:22:29;;;;;;;1.52;0.20;;;13.00;91.40;13.00;100262.00;;;;345694;28;83451;-88
2021/05/20 00:22:44;;;;;;;1.20;0.40;;;12.90;91.40;13.00;100265.00;;;;344164;28;87452;-87
2021/05/20 00:22:56;;;;;;;0.82;0.40;;;12.90;91.40;12.90;100270.00;;;;343025;28;82500;-86
2021/05/20 00:23:08;;;;;;;0.90;0.10;;;12.90;91.40;13.10;100271.00;;;;342817;28;85393;-88
2021/05/20 00:23:20;;;;;;;0.70;0.10;;;12.90;91.50;13.20;100263.00;;;;345820;28;83514;-86
2021/05/20 00:23:32;;;;;;;0.70;0.10;;;12.90;91.60;13.30;100262.00;;;;347148;27;85212;-87
2021/05/20 00:23:44;;;;;;;0.98;0.10;;;13.00;91.50;13.30;100276.00;;;;345678;28;83879;-87
2021/05/20 00:23:56;;;;;;;0.85;0.10;;;12.90;91.40;13.30;100271.00;;;;347032;28;86661;-87
2021/05/20 00:24:08;;;;;;;0.70;0.10;;;13.00;91.40;13.30;100269.00;;;;345411;28;83751;-87
2021/05/20 00:24:20;;;;;;;0.40;0.10;;;13.00;91.20;13.20;100268.00;;;;345501;28;85801;-86
2021/05/20 00:24:31;;;;;;;0.50;0.20;;;13.00;91.10;13.20;100263.00;;;;345512;28;83452;-87
2021/05/20 00:24:43;;;;;;;0.55;0.17;;;13.00;91.10;13.30;100266.00;;;;345524;28;85727;-87
2021/05/20 00:24:56;;;;;;;0.50;0.20;;;13.00;91.10;13.20;100265.00;;;;345752;28;83965;-87
2021/05/20 00:25:08;;;;;;;0.98;0.20;;;13.00;91.20;13.20;100269.00;;;;345651;28;86105;-87
2021/05/20 00:25:20;;;;;;;1.00;0.20;;;13.00;91.10;13.00;100266.00;;;;345858;28;83120;-87
2021/05/20 00:25:32;;;;;;;0.70;0.17;;;13.00;91.00;13.10;100268.00;;;;345519;28;86412;-87
2021/05/20 00:25:44;;;;;;;0.47;0.10;;;13.00;91.00;13.10;100269.00;;;;344387;28;83354;-87
2021/05/20 00:25:56;;;;;;;0.45;0.10;;;13.00;91.10;13.10;100258.00;;;;343072;28;84357;-87
2021/05/20 00:26:12;;;;;;;0.50;0.10;;;13.00;91.10;13.10;100266.00;;;;344310;28;82451;-87
2021/05/20 00:26:24;;;;;;;0.45;0.10;;;13.00;91.10;13.10;100274.00;;;;347180;28;85749;-87
2021/05/20 00:26:35;;;;;;;0.30;0.10;;;13.00;91.00;13.10;100261.00;;;;345765;28;83460;-87
2021/05/20 00:26:47;;;;;;;0.40;0.10;;;13.00;91.00;13.00;100251.00;;;;345554;28;85135;-87
2021/05/20 00:26:59;;;;;;;0.50;0.20;;;13.00;91.00;13.00;100263.00;;;;346951;28;84169;-86
2021/05/20 00:27:11;;;;;;;0.55;0.13;;;13.00;91.00;13.10;100272.00;;;;346633;28;86997;-87
2021/05/20 00:27:23;;;;;;;0.60;0.20;;;13.00;91.10;13.10;100267.00;;;;345326;28;83459;-87
2021/05/20 00:27:34;;;;;;;0.43;0.20;;;13.00;91.20;13.20;100272.00;;;;348400;27;86921;-87
2021/05/20 00:27:46;;;;;;;0.38;0.20;;;13.00;91.60;13.20;100271.00;;;;345657;28;83940;-86
2021/05/20 00:27:58;;;;;;;0.43;0.10;;;13.00;91.40;13.20;100265.00;;;;343063;28;85507;-87
2021/05/20 00:28:10;;;;;;;0.50;0.10;;;13.00;91.40;13.30;100264.00;;;;345585;28;83749;-87
2021/05/20 00:28:22;;;;;;;0.80;0.10;;;13.00;91.40;13.30;100264.00;;;;347082;28;86875;-87
2021/05/20 00:28:33;;;;;;;0.70;0.10;;;13.00;91.40;13.20;100272.00;;;;344638;28;82399;-87
2021/05/20 00:28:45;;;;;;;0.30;0.10;;;13.00;91.20;13.00;100267.00;;;;344278;28;87809;-87
2021/05/20 00:28:57;;;;;;;0.47;0.10;;;13.00;91.00;13.00;100261.00;;;;347286;28;83122;-87
2021/05/20 00:29:09;;;;;;;0.45;0.10;;;13.00;91.10;12.90;100264.00;;;;347001;28;86903;-87
2021/05/20 00:29:21;;;;;;;0.50;0.17;;;13.00;91.20;13.00;100264.00;;;;345764;28;82477;-86
2021/05/20 00:29:32;;;;;;;0.63;0.20;;;13.00;91.20;13.10;100269.00;;;;345696;28;85614;-87
2021/05/20 00:29:44;;;;;;;0.65;0.20;;;13.00;91.30;13.10;100261.00;;;;345892;28;83283;-87
2021/05/20 00:29:56;;;;;;;0.68;0.20;;;13.00;91.40;13.10;100268.00;;;;344503;28;84248;-87
2021/05/20 00:30:10;;;;;;;0.70;0.20;;;13.00;91.60;13.10;100260.00;;;;347020;27;82362;-87
2021/05/20 00:30:22;;;;;;;2.78;0.30;;;13.00;91.40;13.10;100264.00;;;;346536;28;85353;-86
2021/05/20 00:30:34;;;;;;;3.36;0.58;;;13.00;91.40;13.20;100260.00;;;;344478;28;82695;-87
2021/05/20 00:30:45;;;;;;;1.17;0.50;;;13.00;91.40;13.30;100262.00;;;;349092;27;86948;-86
2021/05/20 00:30:57;;;;;;;1.13;0.50;;;13.00;91.40;13.30;100262.00;;;;349766;27;84551;-87
2021/05/20 00:31:09;;;;;;;0.40;0.17;;;13.00;91.40;13.30;100267.00;;;;345798;28;84504;-86
2021/05/20 00:31:21;;;;;;;0.43;0.10;;;13.00;91.40;13.20;100268.00;;;;344387;28;83176;-86
2021/05/20 00:31:33;;;;;;;0.60;0.13;;;13.00;91.40;13.30;100254.00;;;;344323;28;85554;-87
2021/05/20 00:31:44;;;;;;;1.05;0.10;;;13.10;91.50;13.30;100262.00;;;;345907;28;83287;-86
2021/05/20 00:31:56;;;;;;;2.38;0.20;;;13.00;91.50;13.30;100263.00;;;;347089;28;87449;-87
2021/05/20 00:32:08;;;;;;;2.40;0.20;;;13.10;91.60;13.20;100264.00;;;;348489;27;83372;-87
2021/05/20 00:32:20;;;;;;;1.50;0.20;;;13.00;91.50;13.10;100265.00;;;;347141;28;83934;-87
2021/05/20 00:32:32;;;;;;;0.20;0.10;;;13.10;91.50;13.00;100259.00;;;;347228;28;83638;-87
2021/05/20 00:32:44;;;;;;;1.20;0.10;;;13.10;91.40;13.00;100256.00;;;;349953;27;84608;-87
2021/05/20 00:32:56;;;;;;;1.35;0.10;;;13.00;91.40;13.00;100255.00;;;;345781;28;84016;-87
2021/05/20 00:33:08;;;;;;;1.05;0.20;;;13.00;91.40;13.10;100260.00;;;;344400;28;85798;-87
2021/05/20 00:33:20;;;;;;;1.33;0.22;;;13.00;91.40;13.10;100261.00;;;;344176;28;83740;-87
2021/05/20 00:33:32;;;;;;;1.10;0.20;;;13.00;91.50;13.10;100260.00;;;;348316;27;85642;-87
2021/05/20 00:33:43;;;;;;;0.35;0.10;;;13.00;91.50;13.20;100260.00;;;;349838;27;83592;-86
2021/05/20 00:33:55;;;;;;;0.40;0.10;;;13.10;91.60;13.10;100260.00;;;;347210;28;85397;-87
2021/05/20 00:34:07;;;;;;;0.40;0.10;;;13.00;91.60;13.00;100259.00;;;;348562;27;83324;-87
2021/05/20 00:34:19;;;;;;;0.38;0.10;;;13.00;91.50;13.00;100257.00;;;;346745;28;87422;-86
2021/05/20 00:34:31;;;;;;;0.40;0.17;;;13.00;91.40;13.00;100257.00;;;;342782;28;83469;-86
2021/05/20 00:34:43;;;;;;;0.40;0.20;;;13.00;91.40;12.90;100263.00;;;;344313;28;86922;-86
2021/05/20 00:34:54;;;;;;;0.35;0.10;;;13.00;91.40;12.80;100266.00;;;;345706;28;83461;-87
2021/05/20 00:35:07;;;;;;;0.50;0.10;;;13.00;91.50;12.80;100265.00;;;;344453;28;86991;-86
2021/05/20 00:35:19;;;;;;;1.27;0.40;;;13.00;91.50;12.80;100264.00;;;;345828;28;83419;-87
2021/05/20 00:35:31;;;;;;;1.83;0.50;;;13.00;91.60;12.80;100265.00;;;;345730;28;85437;-87
2021/05/20 00:35:43;;;;;;;2.20;0.50;;;13.00;91.60;12.80;100255.00;;;;347184;28;83479;-87
2021/05/20 00:35:54;;;;;;;1.48;0.28;;;13.00;91.60;12.80;100257.00;;;;346964;28;85874;-86
2021/05/20 00:36:07;;;;;;;0.50;0.20;;;13.00;91.70;12.80;100253.00;;;;347103;28;83388;-87
2021/05/20 00:36:19;;;;;;;0.52;0.20;;;12.90;92.00;13.00;100249.00;;;;348142;27;85422;-87
2021/05/20 00:36:31;;;;;;;0.68;0.30;;;13.00;91.80;13.00;100246.00;;;;347002;28;82909;-86
2021/05/20 00:36:43;;;;;;;0.65;0.20;;;13.00;91.80;12.90;100254.00;;;;345784;28;85102;-87
2021/05/20 00:36:55;;;;;;;0.80;0.13;;;12.90;91.80;13.00;100258.00;;;;345799;28;83418;-85
2021/05/20 00:37:06;;;;;;;0.80;0.10;;;13.00;91.90;13.10;100258.00;;;;345879;28;85443;-87
2021/05/20 00:37:18;;;;;;;0.50;0.10;;;12.90;91.90;13.00;100251.00;;;;348522;27;82537;-87
2021/05/20 00:37:30;;;;;;;0.50;0.10;;;12.90;91.90;13.10;100258.00;;;;348536;27;84604;-86
2021/05/20 00:37:42;;;;;;;0.50;0.10;;;12.90;91.80;13.00;100254.00;;;;345814;28;83371;-87
2021/05/20 00:37:54;;;;;;;0.43;0.10;;;13.00;91.60;12.80;100256.00;;;;344398;28;87393;-87
2021/05/20 00:38:10;;;;;;;1.05;0.10;;;13.00;91.50;13.00;100255.00;;;;344416;28;83929;-87
2021/05/20 00:38:22;;;;;;;1.05;0.10;;;13.00;91.50;12.70;100258.00;;;;345607;28;85160;-87
2021/05/20 00:38:34;;;;;;;0.40;0.10;;;13.00;91.10;12.60;100251.00;;;;345822;28;82464;-86
2021/05/20 00:38:46;;;;;;;0.75;0.17;;;12.90;90.90;12.50;100254.00;;;;344392;28;85699;-87
2021/05/20 00:38:58;;;;;;;0.73;0.10;;;12.90;90.80;12.40;100256.00;;;;347211;28;83462;-86
2021/05/20 00:39:10;;;;;;;1.63;0.10;;;12.80;90.80;12.60;100256.00;;;;345412;28;84164;-87
2021/05/20 00:39:22;;;;;;;1.65;0.10;;;12.80;91.20;12.60;100258.00;;;;346947;28;83484;-87
2021/05/20 00:39:34;;;;;;;0.40;0.10;;;12.80;91.30;12.80;100259.00;;;;344354;28;86245;-87
2021/05/20 00:39:47;;;;;;;0.47;0.10;;;12.80;91.10;12.70;100266.00;;;;344702;28;83489;-87
2021/05/20 00:39:59;;;;;;;0.42;0.10;;;12.80;91.10;12.70;100256.00;;;;344410;28;84412;-87
2021/05/20 00:40:11;;;;;;;0.63;0.13;;;12.80;91.20;12.90;100254.00;;;;345596;28;83489;-86
2021/05/20 00:40:23;;;;;;;1.00;0.10;;;12.80;91.20;12.70;100254.00;;;;345801;28;85464;-86
2021/05/20 00:40:35;;;;;;;1.08;0.10;;;12.80;91.20;12.60;100259.00;;;;344305;28;84575;-87
2021/05/20 00:40:46;;;;;;;0.86;0.18;;;12.70;91.20;12.80;100253.00;;;;345764;28;85225;-87
2021/05/20 00:40:59;;;;;;;0.73;0.13;;;12.70;91.20;12.90;100253.00;;;;345797;28;83437;-87
2021/05/20 00:41:11;;;;;;;0.80;0.22;;;12.70;91.30;12.90;100252.00;;;;345607;28;86132;-86
2021/05/20 00:41:23;;;;;;;0.80;0.30;;;12.70;91.40;12.90;100253.00;;;;346317;28;83359;-86
2021/05/20 00:41:35;;;;;;;0.52;0.20;;;12.70;91.40;12.80;100252.00;;;;349820;27;85672;-86
2021/05/20 00:41:47;;;;;;;0.68;0.17;;;12.70;91.30;13.00;100255.00;;;;348648;28;83062;-87
2021/05/20 00:42:08;;;;;;;0.47;0.10;;;12.70;91.40;13.00;100251.00;;;;350151;27;84227;-86
2021/05/20 00:42:20;;;;;;;0.28;0.10;;;12.80;91.40;13.00;100260.00;;;;348215;28;82551;-86
2021/05/20 00:42:33;;;;;;;0.45;0.30;;;12.80;91.40;12.90;100251.00;;;;348881;28;85475;-86
2021/05/20 00:42:45;;;;;;;0.50;0.30;;;12.70;91.30;12.90;100247.00;;;;348110;28;83401;-86
2021/05/20 00:42:57;;;;;;;0.73;0.20;;;12.80;91.30;12.80;100257.00;;;;348653;28;85844;-87
2021/05/20 00:43:09;;;;;;;0.80;0.10;;;12.80;91.30;12.90;100253.00;;;;347365;28;83704;-86
2021/05/20 00:43:21;;;;;;;0.90;0.20;;;12.80;91.50;12.90;100255.00;;;;346012;28;84803;-87
2021/05/20 00:43:32;;;;;;;0.90;0.30;;;12.80;91.20;12.80;100251.00;;;;347308;28;82615;-86
2021/05/20 00:43:44;;;;;;;0.90;0.30;;;12.70;91.10;12.90;100254.00;;;;345937;28;88418;-87
2021/05/20 00:43:56;;;;;;;0.50;0.10;;;12.80;91.20;13.00;100249.00;;;;346250;28;82589;-86
2021/05/20 00:44:08;;;;;;;0.47;0.10;;;12.80;91.20;12.90;100253.00;;;;345998;28;84409;-86
2021/05/20 00:44:20;;;;;;;0.75;0.10;;;12.70;91.20;12.80;100254.00;;;;346184;28;82546;-86
2021/05/20 00:44:31;;;;;;;0.80;0.10;;;12.70;91.20;12.60;100255.00;;;;345598;28;83240;-87
2021/05/20 00:44:54;;;;;;;0.95;0.10;;;12.70;91.10;12.80;100254.00;;;;346123;28;82303;-88
2021/05/20 00:45:07;;;;;;;0.88;0.20;;;12.70;91.10;12.90;100255.00;;;;347247;28;85438;-86
2021/05/20 00:45:19;;;;;;;0.70;0.20;;;12.70;91.20;13.00;100252.00;;;;348442;28;85483;-85
2021/05/20 00:45:31;;;;;;;0.73;0.10;;;12.70;91.30;13.00;100247.00;;;;348429;28;86807;-87
2021/05/20 00:45:42;;;;;;;0.52;0.10;;;12.70;91.20;13.00;100248.00;;;;347202;28;83329;-86
2021/05/20 00:45:54;;;;;;;0.65;0.10;;;12.70;91.30;13.00;100252.00;;;;344652;28;87372;-87
2021/05/20 00:46:06;;;;;;;1.00;0.20;;;12.70;91.30;13.00;100248.00;;;;347164;28;82500;-86
2021/05/20 00:46:19;;;;;;;1.08;0.25;;;12.70;91.40;13.00;100250.00;;;;347343;28;83852;-85
2021/05/20 00:46:31;;;;;;;0.77;0.20;;;12.70;91.30;12.90;100256.00;;;;348695;28;84134;-85
2021/05/20 00:46:42;;;;;;;0.50;0.20;;;12.80;91.30;13.00;100251.00;;;;347506;28;84153;-86
2021/05/20 00:46:56;;;;;;;0.20;0.10;;;12.70;91.30;13.10;100252.00;;;;347310;28;82467;-86
2021/05/20 00:47:07;;;;;;;0.13;0.10;;;12.80;91.40;13.00;100251.00;;;;348616;28;85676;-86
2021/05/20 00:47:26;;;;;;;0.17;0.10;;;12.80;91.30;12.80;100254.00;;;;347270;28;82955;-87
2021/05/20 00:47:38;;;;;;;1.30;0.20;;;12.80;91.20;12.60;100256.00;;;;350049;27;86047;-86
2021/05/20 00:47:50;;;;;;;1.40;0.20;;;12.80;91.20;12.70;100257.00;;;;345981;28;82374;-86
2021/05/20 00:48:02;;;;;;;0.57;0.20;;;12.80;91.50;12.80;100258.00;;;;348676;28;84227;-86
2021/05/20 00:48:14;;;;;;;0.17;0.10;;;12.70;91.20;12.90;100256.00;;;;348186;28;82631;-86
2021/05/20 00:48:26;;;;;;;0.40;0.20;;;12.80;91.30;13.00;100251.00;;;;344820;28;84326;-86
2021/05/20 00:48:37;;;;;;;3.10;0.20;;;12.80;91.40;13.00;100250.00;;;;345819;28;83006;-87
2021/05/20 00:48:49;;;;;;;3.30;0.10;;;12.80;91.40;13.00;100250.00;;;;342828;28;85880;-85
2021/05/20 00:49:01;;;;;;;3.20;0.20;;;12.80;91.40;13.00;100251.00;;;;344497;28;82426;-86
2021/05/20 00:49:13;;;;;;;0.40;0.20;;;12.80;91.40;12.90;100254.00;;;;348894;27;85260;-87
2021/05/20 00:49:24;;;;;;;0.22;0.20;;;12.80;91.30;13.00;100255.00;;;;348731;28;82684;-86
2021/05/20 00:49:36;;;;;;;0.50;0.20;;;12.80;91.30;12.90;100259.00;;;;351446;27;84596;-86
2021/05/20 00:49:49;;;;;;;0.65;0.20;;;12.80;91.40;12.80;100248.00;;;;351649;27;82345;-87
2021/05/20 00:50:06;;;;;;;1.05;0.10;;;12.80;91.30;12.90;100260.00;;;;350154;27;83870;-87
2021/05/20 00:50:18;;;;;;;0.98;0.10;;;12.80;91.30;12.80;100256.00;;;;349937;27;84267;-86
2021/05/20 00:50:29;;;;;;;0.50;0.10;;;12.80;91.50;12.90;100268.00;;;;349504;27;85612;-86
2021/05/20 00:50:41;;;;;;;0.45;0.13;;;12.80;91.20;12.80;100261.00;;;;348537;28;82362;-87
2021/05/20 00:50:53;;;;;;;0.40;0.10;;;12.80;91.20;12.90;100260.00;;;;347238;28;84246;-86
2021/05/20 00:51:05;;;;;;;0.20;0.10;;;12.80;91.30;12.90;100258.00;;;;347291;28;82317;-86
2021/05/20 00:51:17;;;;;;;0.35;0.20;;;12.80;91.30;12.80;100254.00;;;;346601;28;86140;-87
2021/05/20 00:51:29;;;;;;;0.40;0.20;;;12.80;91.40;12.80;100258.00;;;;344420;28;83085;-87
2021/05/20 00:51:42;;;;;;;0.52;0.20;;;12.80;91.30;12.90;100265.00;;;;344139;28;83550;-88
2021/05/20 00:51:55;;;;;;;0.60;0.20;;;12.70;91.40;12.90;100255.00;;;;347350;28;82389;-86
2021/05/20 00:52:07;;;;;;;0.55;0.20;;;12.70;91.50;13.10;100257.00;;;;345916;28;84613;-88
2021/05/20 00:52:19;;;;;;;0.45;0.10;;;12.80;91.60;13.10;100263.00;;;;346047;28;82477;-86
2021/05/20 00:52:31;;;;;;;0.30;0.10;;;12.80;91.50;13.10;100260.00;;;;347157;28;84071;-88
2021/05/20 00:52:43;;;;;;;0.63;0.10;;;12.70;91.50;13.10;100259.00;;;;350157;27;84307;-87
2021/05/20 00:52:55;;;;;;;2.03;0.10;;;12.80;91.60;13.10;100259.00;;;;347319;28;85702;-86
2021/05/20 00:53:07;;;;;;;2.08;0.20;;;12.80;91.50;12.90;100258.00;;;;350284;27;82438;-88
2021/05/20 00:53:19;;;;;;;0.74;0.20;;;12.80;91.40;12.80;100268.00;;;;348648;28;84382;-86
2021/05/20 00:53:31;;;;;;;0.70;0.20;;;12.70;91.30;13.00;100245.00;;;;349977;27;82719;-86
2021/05/20 00:53:43;;;;;;;0.50;0.20;;;12.70;91.40;13.00;100261.00;;;;346008;28;84207;-86
2021/05/20 00:53:54;;;;;;;0.30;0.20;;;12.70;91.40;13.10;100264.00;;;;345996;28;82332;-86